Time;durP1;ratioP1;P1;durP2;ratioP2;P2;SDS_P1;SDS_P2;PMS_P1;PMS_P2;Temp;Humidity;BMP_temperature;BMP_pressure;BME280_temperature;BME280_humidity;BME280_pressure;Samples;Min_cycle;Max_cycle;Signal;HPM_P1;HPM_P2
2023/08/24 00:02:03;;;;;;;0.22;0.22;;;16.10;99.90;;;;;;5002070;28;20459;-74
2023/08/24 00:04:29;;;;;;;0.30;0.30;;;16.00;99.90;;;;;;5001862;28;20408;-74
2023/08/24 00:06:54;;;;;;;0.38;0.38;;;16.00;99.90;;;;;;4992395;28;20613;-74
2023/08/24 00:09:20;;;;;;;0.30;0.30;;;16.00;99.90;;;;;;5004177;28;20054;-74
2023/08/24 00:11:46;;;;;;;0.30;0.30;;;15.90;99.90;;;;;;4986654;28;20054;-74
2023/08/24 00:14:12;;;;;;;0.30;0.30;;;15.90;99.90;;;;;;5005520;28;20081;-74
2023/08/24 00:16:38;;;;;;;0.20;0.20;;;15.90;99.90;;;;;;5005409;28;20045;-74
2023/08/24 00:19:04;;;;;;;0.73;0.73;;;15.80;99.90;;;;;;4974664;28;20053;-74
2023/08/24 00:21:30;;;;;;;0.30;0.30;;;15.80;99.90;;;;;;4977248;28;20041;-74
2023/08/24 00:23:56;;;;;;;0.20;0.20;;;15.80;99.90;;;;;;4987660;28;20126;-74
2023/08/24 00:26:23;;;;;;;0.30;0.30;;;15.80;99.90;;;;;;4990210;28;20121;-74
2023/08/24 00:28:49;;;;;;;0.20;0.20;;;15.80;99.90;;;;;;4987765;28;20130;-74
2023/08/24 00:31:17;;;;;;;0.30;0.30;;;15.70;99.90;;;;;;4991276;28;20049;-74
2023/08/24 00:33:43;;;;;;;0.30;0.25;;;15.70;99.90;;;;;;4988904;28;20443;-74
2023/08/24 00:36:09;;;;;;;0.20;0.20;;;15.70;99.90;;;;;;4993071;28;20589;-74
2023/08/24 00:38:36;;;;;;;0.20;0.20;;;15.70;99.90;;;;;;4990125;28;20050;-74
2023/08/24 00:41:02;;;;;;;0.30;0.30;;;15.60;99.90;;;;;;5003070;28;20047;-74
2023/08/24 00:43:28;;;;;;;0.30;0.30;;;15.60;99.90;;;;;;4988058;28;20054;-74
2023/08/24 00:45:56;;;;;;;0.20;0.20;;;15.60;99.90;;;;;;4964975;28;20060;-74
2023/08/24 00:48:28;;;;;;;0.20;0.20;;;15.50;99.90;;;;;;4985962;28;20042;-74
2023/08/24 00:50:59;;;;;;;0.30;0.30;;;15.40;99.90;;;;;;4989998;28;20057;-74
2023/08/24 00:53:25;;;;;;;0.25;0.25;;;15.20;99.90;;;;;;4987477;28;20495;-74
2023/08/24 00:55:51;;;;;;;0.30;0.30;;;15.10;99.90;;;;;;4988909;28;20061;-74
2023/08/24 00:58:18;;;;;;;0.20;0.20;;;15.10;99.90;;;;;;4986151;28;20041;-74
2023/08/24 01:00:44;;;;;;;0.10;0.10;;;15.10;99.90;;;;;;5000640;28;20061;-74
2023/08/24 01:03:10;;;;;;;0.20;0.20;;;15.00;99.90;;;;;;4973269;28;20297;-74
2023/08/24 01:05:35;;;;;;;0.30;0.30;;;15.00;99.90;;;;;;4987787;28;20054;-74
2023/08/24 01:08:01;;;;;;;0.17;0.17;;;15.00;99.90;;;;;;4987198;28;20057;-74
2023/08/24 01:10:37;;;;;;;0.30;0.30;;;15.00;99.90;;;;;;4996289;28;20053;-74
2023/08/24 01:13:09;;;;;;;0.20;0.20;;;15.00;99.90;;;;;;4988912;28;20052;-74
2023/08/24 01:16:06;;;;;;;0.20;0.20;;;15.00;99.90;;;;;;5006892;28;20060;-74
2023/08/24 01:18:33;;;;;;;0.20;0.20;;;15.00;99.90;;;;;;5002821;28;20049;-74
2023/08/24 01:20:59;;;;;;;0.28;0.28;;;15.00;99.90;;;;;;5011600;28;20626;-74
2023/08/24 01:24:09;;;;;;;0.20;0.20;;;15.00;99.90;;;;;;4997264;28;20042;-74
2023/08/24 01:26:36;;;;;;;0.52;0.50;;;15.00;99.90;;;;;;5002431;28;20812;-74
2023/08/24 01:29:04;;;;;;;0.30;0.30;;;14.90;99.90;;;;;;5005287;28;20045;-74
2023/08/24 01:31:29;;;;;;;;;;;15.00;99.90;;;;;;4992442;28;20092;-74
2023/08/24 01:33:55;;;;;;;0.20;0.20;;;15.00;99.90;;;;;;4981238;28;19921;-74
2023/08/24 01:36:22;;;;;;;0.17;0.17;;;15.00;99.90;;;;;;5004545;28;20044;-74
2023/08/24 01:39:22;;;;;;;0.30;0.30;;;14.90;99.90;;;;;;4999862;28;20034;-74
2023/08/24 01:41:52;;;;;;;0.30;0.30;;;14.90;99.90;;;;;;5012456;28;20042;-74
2023/08/24 01:44:21;;;;;;;0.35;0.35;;;14.80;99.90;;;;;;4990452;28;20072;-74
2023/08/24 01:46:49;;;;;;;0.30;0.30;;;14.80;99.90;;;;;;4997136;28;20069;-74
2023/08/24 01:49:18;;;;;;;0.30;0.30;;;14.80;99.90;;;;;;4989079;28;20136;-74
2023/08/24 01:51:45;;;;;;;0.32;0.32;;;14.80;99.90;;;;;;4994800;28;20511;-73
2023/08/24 01:54:12;;;;;;;0.30;0.30;;;14.80;99.90;;;;;;4977396;28;20042;-74
2023/08/24 01:56:37;;;;;;;0.20;0.20;;;14.80;99.90;;;;;;4979178;28;20039;-74
2023/08/24 01:59:03;;;;;;;0.22;0.22;;;14.80;99.90;;;;;;4968272;28;20142;-74
2023/08/24 02:01:29;;;;;;;0.20;0.20;;;14.80;99.90;;;;;;4980038;28;20046;-73
2023/08/24 02:03:55;;;;;;;0.43;0.43;;;14.80;99.90;;;;;;4978772;28;20557;-74
2023/08/24 02:06:21;;;;;;;0.20;0.20;;;14.80;99.90;;;;;;4985443;28;20058;-73
2023/08/24 02:08:47;;;;;;;0.20;0.20;;;14.90;99.90;;;;;;4964479;28;20038;-73
2023/08/24 02:11:12;;;;;;;0.30;0.30;;;14.90;99.90;;;;;;4979411;28;20051;-73
2023/08/24 02:13:38;;;;;;;0.20;0.20;;;14.90;99.90;;;;;;4967067;28;20094;-73
2023/08/24 02:16:06;;;;;;;0.38;0.38;;;14.90;99.90;;;;;;4964092;28;20051;-73
2023/08/24 02:18:32;;;;;;;0.20;0.20;;;14.90;99.90;;;;;;4965447;28;20093;-74
2023/08/24 02:20:58;;;;;;;0.20;0.20;;;14.90;99.90;;;;;;4961825;28;20124;-74
2023/08/24 02:23:23;;;;;;;0.30;0.30;;;15.00;99.90;;;;;;4986405;28;20453;-74
2023/08/24 02:25:49;;;;;;;0.30;0.30;;;15.00;99.90;;;;;;4960702;28;20046;-74
2023/08/24 02:28:15;;;;;;;0.30;0.30;;;15.00;99.90;;;;;;4964203;28;20474;-74
2023/08/24 02:30:40;;;;;;;0.15;0.15;;;15.00;99.90;;;;;;4979172;28;20074;-75
2023/08/24 02:33:07;;;;;;;0.30;0.30;;;15.10;99.90;;;;;;4963319;28;20495;-74
2023/08/24 02:35:32;;;;;;;0.30;0.30;;;15.10;99.90;;;;;;4961195;28;20054;-74
2023/08/24 02:37:58;;;;;;;0.30;0.30;;;15.10;99.90;;;;;;4981401;28;20056;-74
2023/08/24 02:40:23;;;;;;;0.20;0.20;;;15.10;99.90;;;;;;4965539;28;20519;-74
2023/08/24 02:42:49;;;;;;;0.30;0.30;;;15.10;99.90;;;;;;4963313;28;20046;-74
2023/08/24 02:45:15;;;;;;;0.40;0.40;;;15.10;99.90;;;;;;4960027;28;20058;-74
2023/08/24 02:47:40;;;;;;;0.13;0.13;;;15.10;99.90;;;;;;4977852;28;20419;-74
2023/08/24 02:50:06;;;;;;;0.70;0.70;;;15.10;99.90;;;;;;4960042;28;20388;-74
2023/08/24 02:52:32;;;;;;;0.30;0.30;;;15.10;99.90;;;;;;4980122;28;20038;-74
2023/08/24 02:54:58;;;;;;;0.30;0.30;;;15.20;99.90;;;;;;4985670;28;20054;-74
2023/08/24 02:57:25;;;;;;;0.32;0.32;;;15.20;99.90;;;;;;4986703;28;20097;-74
2023/08/24 02:59:50;;;;;;;0.30;0.30;;;15.10;99.90;;;;;;4987477;28;20116;-74
2023/08/24 03:02:16;;;;;;;0.30;0.30;;;15.20;99.90;;;;;;4982852;28;20045;-74
2023/08/24 03:04:42;;;;;;;0.20;0.20;;;15.10;99.90;;;;;;4989557;28;20042;-74
2023/08/24 03:07:10;;;;;;;0.40;0.40;;;15.20;99.90;;;;;;4985022;28;20041;-74
2023/08/24 03:09:35;;;;;;;;;;;15.20;99.90;;;;;;5001971;28;20062;-74
2023/08/24 03:12:01;;;;;;;0.30;0.30;;;15.20;99.90;;;;;;4986128;28;19923;-74
2023/08/24 03:14:28;;;;;;;0.30;0.30;;;15.20;99.90;;;;;;4983772;28;20541;-74
2023/08/24 03:16:54;;;;;;;0.30;0.30;;;15.20;99.90;;;;;;5001945;28;20042;-74
2023/08/24 03:19:19;;;;;;;0.30;0.30;;;15.20;99.90;;;;;;4995093;28;20041;-74
2023/08/24 03:21:45;;;;;;;0.30;0.30;;;15.20;99.90;;;;;;4986341;28;20061;-74
2023/08/24 03:24:11;;;;;;;0.20;0.20;;;15.20;99.90;;;;;;4986484;28;20037;-74
2023/08/24 03:26:36;;;;;;;0.22;0.22;;;15.20;99.90;;;;;;4985957;28;20490;-74
2023/08/24 03:29:02;;;;;;;0.20;0.20;;;15.20;99.90;;;;;;4995770;28;20502;-74
2023/08/24 03:31:27;;;;;;;0.32;0.32;;;15.20;99.90;;;;;;4985612;28;20088;-74
2023/08/24 03:33:53;;;;;;;0.30;0.30;;;15.20;99.90;;;;;;4987467;28;20108;-74
2023/08/24 03:36:19;;;;;;;0.20;0.20;;;15.20;99.90;;;;;;4987509;28;20042;-74
2023/08/24 03:38:48;;;;;;;0.20;0.20;;;15.10;99.90;;;;;;4974005;28;20663;-74
2023/08/24 03:41:13;;;;;;;0.30;0.30;;;15.10;99.90;;;;;;5001990;28;20061;-74
2023/08/24 03:43:39;;;;;;;0.20;0.20;;;15.20;99.90;;;;;;5006935;28;20060;-74
2023/08/24 03:46:05;;;;;;;0.25;0.25;;;15.20;99.90;;;;;;5005401;28;20488;-74
2023/08/24 03:48:32;;;;;;;0.40;0.40;;;15.10;99.90;;;;;;5001476;28;20112;-75
2023/08/24 03:50:58;;;;;;;0.30;0.30;;;15.10;99.90;;;;;;4975267;28;20418;-75
2023/08/24 03:53:24;;;;;;;0.30;0.30;;;15.10;99.90;;;;;;4992620;28;20050;-74
2023/08/24 03:55:51;;;;;;;0.73;0.73;;;15.10;99.90;;;;;;4989111;28;20454;-74
2023/08/24 03:58:17;;;;;;;0.40;0.40;;;15.10;99.90;;;;;;4993430;28;20038;-74
2023/08/24 04:00:44;;;;;;;0.30;0.30;;;15.10;99.90;;;;;;4985768;28;20053;-74
2023/08/24 04:03:10;;;;;;;0.43;0.43;;;15.10;99.90;;;;;;4974914;28;20129;-75
2023/08/24 04:05:36;;;;;;;0.30;0.30;;;15.00;99.90;;;;;;4989640;28;20161;-74
2023/08/24 04:08:02;;;;;;;0.20;0.20;;;15.00;99.90;;;;;;4975210;28;20598;-74
2023/08/24 04:10:29;;;;;;;0.20;0.20;;;15.00;99.90;;;;;;4997618;28;20507;-74
2023/08/24 04:12:54;;;;;;;0.30;0.30;;;15.00;99.90;;;;;;5002488;28;20579;-75
2023/08/24 04:15:20;;;;;;;0.40;0.40;;;14.90;99.90;;;;;;4989853;28;20092;-74
2023/08/24 04:17:46;;;;;;;0.25;0.25;;;14.90;99.90;;;;;;4994837;28;20072;-74
2023/08/24 04:20:12;;;;;;;0.20;0.20;;;14.90;99.90;;;;;;4983268;28;20065;-74
2023/08/24 04:22:38;;;;;;;0.55;0.50;;;14.90;99.90;;;;;;5010970;28;20038;-74
2023/08/24 04:25:04;;;;;;;0.30;0.30;;;14.80;99.90;;;;;;4992010;28;20038;-74
2023/08/24 04:27:30;;;;;;;0.30;0.30;;;14.80;99.90;;;;;;4989688;28;20121;-74
2023/08/24 04:29:55;;;;;;;0.20;0.20;;;14.80;99.90;;;;;;4980081;28;20084;-74
2023/08/24 04:32:23;;;;;;;0.38;0.38;;;14.70;99.90;;;;;;5008788;28;20038;-74
2023/08/24 04:34:48;;;;;;;0.27;0.27;;;14.70;99.90;;;;;;4988039;28;20100;-74
2023/08/24 04:37:14;;;;;;;0.40;0.40;;;14.70;99.90;;;;;;4985324;28;20301;-75
2023/08/24 04:39:41;;;;;;;0.52;0.52;;;14.70;99.90;;;;;;4956304;28;20120;-75
2023/08/24 04:42:07;;;;;;;0.40;0.40;;;14.70;99.90;;;;;;5003698;28;20525;-74
2023/08/24 04:44:33;;;;;;;0.30;0.30;;;14.60;99.90;;;;;;4991064;28;20050;-74
2023/08/24 04:46:58;;;;;;;0.20;0.20;;;14.60;99.90;;;;;;4988432;28;20050;-74
2023/08/24 04:49:24;;;;;;;0.35;0.35;;;14.60;99.90;;;;;;5003077;28;20049;-74
2023/08/24 04:51:50;;;;;;;0.20;0.20;;;14.60;99.90;;;;;;4983621;28;20051;-75
2023/08/24 04:54:15;;;;;;;0.32;0.32;;;14.60;99.90;;;;;;4983799;28;20045;-76
2023/08/24 04:56:41;;;;;;;0.30;0.30;;;14.60;99.90;;;;;;4971789;28;20050;-75
2023/08/24 04:59:08;;;;;;;0.30;0.30;;;14.60;99.90;;;;;;4980973;28;20042;-74
2023/08/24 05:01:34;;;;;;;0.28;0.28;;;14.60;99.90;;;;;;4970411;28;20522;-74
2023/08/24 05:04:00;;;;;;;0.30;0.30;;;14.50;99.90;;;;;;4987923;28;20189;-74
2023/08/24 05:06:26;;;;;;;0.30;0.30;;;14.50;99.90;;;;;;4955987;28;20054;-74
2023/08/24 05:08:52;;;;;;;0.40;0.40;;;14.40;99.90;;;;;;4988206;28;20060;-74
2023/08/24 05:11:19;;;;;;;0.30;0.30;;;14.40;99.90;;;;;;4988055;28;20553;-74
2023/08/24 05:13:45;;;;;;;0.20;0.20;;;14.40;99.90;;;;;;4957939;28;20107;-74
2023/08/24 05:16:12;;;;;;;0.20;0.20;;;14.40;99.90;;;;;;4955518;28;20841;-74
2023/08/24 05:18:38;;;;;;;0.30;0.30;;;14.50;99.90;;;;;;4988206;28;20062;-74
2023/08/24 05:21:06;;;;;;;0.30;0.30;;;14.50;99.90;;;;;;4955738;28;20750;-74
2023/08/24 05:23:33;;;;;;;0.20;0.20;;;14.70;99.90;;;;;;4988215;28;20201;-74
2023/08/24 05:26:00;;;;;;;0.40;0.40;;;14.70;99.90;;;;;;4980243;28;20418;-74
2023/08/24 05:28:27;;;;;;;0.30;0.30;;;14.80;99.90;;;;;;4971901;28;20406;-75
2023/08/24 05:30:53;;;;;;;0.30;0.30;;;14.90;99.90;;;;;;4988006;28;20774;-71
2023/08/24 05:33:20;;;;;;;0.13;0.13;;;15.00;99.90;;;;;;4988710;28;20131;-71
2023/08/24 05:35:46;;;;;;;0.30;0.30;;;15.20;99.90;;;;;;4952643;28;20117;-72
2023/08/24 05:38:13;;;;;;;0.40;0.40;;;15.30;99.90;;;;;;4982757;28;20047;-71
2023/08/24 05:40:39;;;;;;;0.40;0.40;;;15.40;99.90;;;;;;4986713;28;20451;-72
2023/08/24 05:43:05;;;;;;;0.63;0.47;;;15.50;99.90;;;;;;4989426;28;20113;-72
2023/08/24 05:45:31;;;;;;;0.40;0.40;;;15.60;99.90;;;;;;4977358;28;20502;-72
2023/08/24 05:47:57;;;;;;;0.30;0.30;;;15.60;99.90;;;;;;4981963;28;20046;-72
2023/08/24 05:50:22;;;;;;;0.30;0.30;;;15.70;99.90;;;;;;4988460;28;20125;-72
2023/08/24 05:52:48;;;;;;;0.50;0.50;;;15.70;99.90;;;;;;4979794;28;20256;-72
2023/08/24 05:55:15;;;;;;;0.40;0.40;;;15.70;99.90;;;;;;4986942;28;20042;-72
2023/08/24 05:57:42;;;;;;;0.22;0.22;;;15.80;99.90;;;;;;4991768;28;20133;-70
2023/08/24 06:00:09;;;;;;;0.30;0.30;;;15.80;99.90;;;;;;4990901;28;20628;-71
2023/08/24 06:02:39;;;;;;;0.20;0.20;;;15.80;99.90;;;;;;4982674;28;20085;-71
2023/08/24 06:05:06;;;;;;;0.30;0.30;;;15.90;99.90;;;;;;4987152;28;20050;-70
2023/08/24 06:07:32;;;;;;;0.30;0.30;;;16.00;99.90;;;;;;5002849;28;20042;-70
2023/08/24 06:09:58;;;;;;;0.52;0.52;;;16.00;99.90;;;;;;4999854;28;20050;-70
2023/08/24 06:12:23;;;;;;;0.20;0.20;;;16.10;99.90;;;;;;4985951;28;20464;-70
2023/08/24 06:14:49;;;;;;;0.45;0.45;;;16.10;99.90;;;;;;4986802;28;20398;-70
2023/08/24 06:17:15;;;;;;;0.30;0.30;;;16.20;99.90;;;;;;4985037;28;20050;-70
2023/08/24 06:19:41;;;;;;;0.45;0.45;;;16.20;99.90;;;;;;4984221;28;20133;-70
2023/08/24 06:22:07;;;;;;;0.40;0.40;;;16.20;99.90;;;;;;4998731;28;20057;-71
2023/08/24 06:24:32;;;;;;;0.70;0.70;;;16.30;99.90;;;;;;4990309;28;20038;-71
2023/08/24 06:26:58;;;;;;;0.50;0.50;;;16.30;99.90;;;;;;4986094;28;20042;-71
2023/08/24 06:29:24;;;;;;;0.55;0.30;;;16.50;99.90;;;;;;4985539;28;20050;-71
2023/08/24 06:31:49;;;;;;;0.20;0.20;;;16.50;99.90;;;;;;5001546;28;20048;-71
2023/08/24 06:34:15;;;;;;;0.77;0.55;;;16.60;99.90;;;;;;5003068;28;20073;-71
2023/08/24 06:36:41;;;;;;;0.30;0.30;;;16.70;99.90;;;;;;4986757;28;20054;-71
2023/08/24 06:39:07;;;;;;;0.35;0.35;;;16.70;99.90;;;;;;4984715;28;20045;-71
2023/08/24 06:41:36;;;;;;;0.43;0.43;;;16.80;99.90;;;;;;4989406;28;20050;-71
2023/08/24 06:44:01;;;;;;;0.50;0.40;;;16.80;99.90;;;;;;4986976;28;20057;-71
2023/08/24 06:46:27;;;;;;;0.40;0.40;;;16.90;99.90;;;;;;4986653;28;20403;-72
2023/08/24 06:48:53;;;;;;;0.50;0.50;;;16.90;99.90;;;;;;4988306;28;20343;-71
2023/08/24 06:51:19;;;;;;;0.60;0.60;;;17.00;99.90;;;;;;4978130;28;20086;-71
2023/08/24 06:53:46;;;;;;;0.55;0.55;;;17.00;99.90;;;;;;4986647;28;20183;-71
2023/08/24 06:56:14;;;;;;;0.40;0.40;;;17.10;99.90;;;;;;4988618;28;20656;-71
2023/08/24 06:58:40;;;;;;;0.60;0.60;;;17.20;99.90;;;;;;4986287;28;20129;-72
2023/08/24 07:01:06;;;;;;;0.40;0.40;;;17.30;99.90;;;;;;4997511;28;20081;-71
2023/08/24 07:03:35;;;;;;;0.60;0.60;;;17.40;99.90;;;;;;4992463;28;20052;-71
2023/08/24 07:06:00;;;;;;;1.00;1.00;;;17.50;99.90;;;;;;4989848;28;20103;-71
2023/08/24 07:08:26;;;;;;;0.40;0.40;;;17.60;99.90;;;;;;4986947;28;20030;-72
2023/08/24 07:10:51;;;;;;;0.63;0.63;;;17.80;99.90;;;;;;4985029;28;20453;-71
2023/08/24 07:13:17;;;;;;;1.38;0.95;;;18.00;99.90;;;;;;4991352;28;21036;-71
2023/08/24 07:15:45;;;;;;;0.60;0.60;;;18.20;99.90;;;;;;4987501;28;20046;-71
2023/08/24 07:18:10;;;;;;;1.08;1.08;;;18.40;99.90;;;;;;4985362;28;20499;-71
2023/08/24 07:20:37;;;;;;;1.35;1.35;;;18.60;99.90;;;;;;4984747;28;20045;-71
2023/08/24 07:23:03;;;;;;;0.40;0.40;;;18.80;99.90;;;;;;5009592;28;20041;-71
2023/08/24 07:25:29;;;;;;;1.25;1.23;;;19.10;99.90;;;;;;4983740;28;20051;-71
2023/08/24 07:27:59;;;;;;;0.30;0.30;;;19.30;99.90;;;;;;5007807;28;20046;-71
2023/08/24 07:30:26;;;;;;;2.00;0.60;;;19.60;99.90;;;;;;4999951;28;20415;-72
2023/08/24 07:32:53;;;;;;;0.40;0.40;;;19.80;99.90;;;;;;4991489;28;20046;-72
2023/08/24 07:35:20;;;;;;;0.60;0.60;;;19.90;99.90;;;;;;5005681;28;20092;-72
2023/08/24 07:37:48;;;;;;;1.40;1.30;;;20.10;99.90;;;;;;5000046;28;20490;-72
2023/08/24 07:40:14;;;;;;;0.90;0.90;;;20.30;99.90;;;;;;5004753;28;20482;-72
2023/08/24 07:42:53;;;;;;;1.58;1.48;;;20.40;99.90;;;;;;4997740;28;20061;-73
2023/08/24 07:45:19;;;;;;;0.82;0.73;;;20.70;99.90;;;;;;4987358;28;20429;-74
2023/08/24 07:47:44;;;;;;;0.40;0.40;;;20.80;99.90;;;;;;5004727;28;20398;-71
2023/08/24 07:50:11;;;;;;;0.70;0.70;;;21.00;99.90;;;;;;4990422;28;20038;-71
2023/08/24 07:52:38;;;;;;;0.73;0.73;;;21.20;99.90;;;;;;5003448;28;20194;-71
2023/08/24 07:55:06;;;;;;;0.30;0.30;;;21.40;99.90;;;;;;4987915;28;20046;-71
2023/08/24 07:57:33;;;;;;;0.40;0.32;;;21.40;99.90;;;;;;4995066;28;20093;-71
2023/08/24 07:59:59;;;;;;;0.73;0.73;;;21.40;99.90;;;;;;4990374;28;20057;-71
2023/08/24 08:02:24;;;;;;;0.73;0.73;;;21.50;99.90;;;;;;4982056;28;20616;-71
2023/08/24 08:04:50;;;;;;;0.52;0.52;;;21.60;99.90;;;;;;4987000;28;20511;-71
2023/08/24 08:07:16;;;;;;;0.70;0.70;;;21.70;99.90;;;;;;4986858;28;20057;-71
2023/08/24 08:09:42;;;;;;;0.40;0.40;;;21.80;99.90;;;;;;5004531;28;20069;-71
2023/08/24 08:12:08;;;;;;;0.70;0.70;;;22.00;99.90;;;;;;4988978;28;20038;-71
2023/08/24 08:14:33;;;;;;;0.55;0.55;;;22.20;99.90;;;;;;5005038;28;20049;-71
2023/08/24 08:16:59;;;;;;;0.40;0.40;;;22.40;99.90;;;;;;5009263;28;20073;-71
2023/08/24 08:19:28;;;;;;;0.80;0.80;;;22.50;99.90;;;;;;4993874;28;20046;-71
2023/08/24 08:21:53;;;;;;;0.25;0.25;;;22.80;99.90;;;;;;4998875;28;20049;-71
2023/08/24 08:24:19;;;;;;;0.30;0.30;;;23.10;99.90;;;;;;4988600;28;20044;-71
2023/08/24 08:26:45;;;;;;;0.32;0.32;;;23.30;99.90;;;;;;5006212;28;20045;-71
2023/08/24 08:29:10;;;;;;;0.50;0.50;;;23.50;99.90;;;;;;4985778;28;20353;-71
2023/08/24 08:31:37;;;;;;;1.13;1.02;;;23.60;99.90;;;;;;4986973;28;20475;-71
2023/08/24 08:34:04;;;;;;;0.45;0.45;;;23.70;99.90;;;;;;5003348;28;20045;-71
2023/08/24 08:36:32;;;;;;;2.03;0.68;;;23.90;99.90;;;;;;5003390;28;20053;-71
2023/08/24 08:38:58;;;;;;;0.57;0.57;;;24.00;99.90;;;;;;4995883;28;20103;-71
2023/08/24 08:41:30;;;;;;;0.45;0.45;;;24.20;99.90;;;;;;4982784;28;20050;-71
2023/08/24 08:43:56;;;;;;;0.73;0.73;;;24.20;99.90;;;;;;4979444;28;20054;-71
2023/08/24 08:46:22;;;;;;;0.50;0.50;;;24.30;99.90;;;;;;4984872;28;20575;-71
2023/08/24 08:48:50;;;;;;;0.25;0.25;;;24.40;99.90;;;;;;4988587;28;20566;-71
2023/08/24 08:51:17;;;;;;;0.45;0.45;;;24.50;99.90;;;;;;4982734;28;20061;-71
2023/08/24 08:53:43;;;;;;;0.70;0.70;;;24.60;99.90;;;;;;4987560;28;20062;-71
2023/08/24 08:56:09;;;;;;;0.57;0.57;;;24.70;99.90;;;;;;4984265;28;20073;-71
2023/08/24 08:58:36;;;;;;;0.40;0.40;;;24.80;99.90;;;;;;4990939;28;20470;-71
2023/08/24 09:01:03;;;;;;;2.53;0.65;;;24.90;99.90;;;;;;4984276;28;20042;-71
2023/08/24 09:03:30;;;;;;;;;;;25.00;99.90;;;;;;5003958;28;20133;-71
2023/08/24 09:05:56;;;;;;;1.15;0.98;;;25.20;99.90;;;;;;4981306;28;19925;-71
2023/08/24 09:08:22;;;;;;;0.52;0.52;;;25.30;99.90;;;;;;4982445;28;20050;-72
2023/08/24 09:10:48;;;;;;;0.65;0.65;;;25.40;99.90;;;;;;4983529;28;20050;-71
2023/08/24 09:13:14;;;;;;;0.93;0.93;;;25.50;99.90;;;;;;4977303;28;20137;-71
2023/08/24 09:15:39;;;;;;;0.65;0.65;;;25.40;99.90;;;;;;5004173;28;20120;-71
2023/08/24 09:18:05;;;;;;;0.57;0.57;;;25.40;99.90;;;;;;4984870;28;20129;-71
2023/08/24 09:20:31;;;;;;;0.35;0.35;;;25.40;99.90;;;;;;4989143;28;20534;-71
2023/08/24 09:22:58;;;;;;;0.47;0.47;;;25.50;99.90;;;;;;5004660;28;20100;-71
2023/08/24 09:25:27;;;;;;;0.80;0.80;;;25.60;99.90;;;;;;4988644;28;20054;-71
2023/08/24 09:28:04;;;;;;;0.73;0.73;;;25.70;99.90;;;;;;4988583;28;20085;-71
2023/08/24 09:30:35;;;;;;;0.43;0.43;;;25.70;99.90;;;;;;4986712;28;20136;-71
2023/08/24 09:33:08;;;;;;;1.00;1.00;;;25.70;99.90;;;;;;5008422;28;20517;-71
2023/08/24 09:35:36;;;;;;;0.35;0.35;;;25.70;99.90;;;;;;4978459;28;20510;-71
2023/08/24 09:38:17;;;;;;;0.25;0.25;;;25.70;99.90;;;;;;4990027;28;20057;-71
2023/08/24 09:40:47;;;;;;;0.60;0.60;;;25.70;99.90;;;;;;4993790;28;20061;-71
2023/08/24 09:43:13;;;;;;;0.20;0.20;;;25.70;99.90;;;;;;4989520;28;20045;-71
2023/08/24 09:45:54;;;;;;;0.55;0.55;;;25.60;99.90;;;;;;4986387;28;20132;-71
2023/08/24 09:48:21;;;;;;;0.85;0.85;;;25.50;99.90;;;;;;4989888;28;20049;-71
2023/08/24 09:50:50;;;;;;;0.60;0.60;;;25.50;99.90;;;;;;4975398;28;20086;-71
2023/08/24 09:53:23;;;;;;;0.30;0.30;;;25.60;99.90;;;;;;5002008;28;20085;-71
2023/08/24 09:56:09;;;;;;;0.52;0.52;;;25.60;99.90;;;;;;4987221;28;20487;-71
2023/08/24 09:58:35;;;;;;;0.57;0.43;;;25.60;99.90;;;;;;4984571;28;20263;-71
2023/08/24 10:01:03;;;;;;;0.57;0.57;;;25.50;99.90;;;;;;4992623;28;20129;-71
2023/08/24 10:03:32;;;;;;;0.32;0.32;;;25.40;99.90;;;;;;5001641;28;20350;-71
2023/08/24 10:06:00;;;;;;;0.65;0.65;;;25.30;99.90;;;;;;4987759;28;20469;-71
2023/08/24 10:08:28;;;;;;;0.38;0.38;;;25.30;99.90;;;;;;5003703;28;20110;-71
2023/08/24 10:10:58;;;;;;;0.22;0.22;;;25.20;99.90;;;;;;4993763;28;20073;-71
2023/08/24 10:13:41;;;;;;;0.40;0.40;;;25.20;99.90;;;;;;4985692;28;20070;-70
2023/08/24 10:16:08;;;;;;;0.32;0.32;;;25.20;99.90;;;;;;4999676;28;20510;-71
2023/08/24 10:18:36;;;;;;;0.43;0.43;;;25.00;99.90;;;;;;5002542;28;20562;-70
2023/08/24 10:21:01;;;;;;;;;;;24.80;99.90;;;;;;4979789;28;20074;-70
2023/08/24 10:23:29;;;;;;;0.60;0.60;;;24.80;99.90;;;;;;5002089;28;19976;-71
2023/08/24 10:25:55;;;;;;;;;;;24.70;99.90;;;;;;5000992;28;20743;-70
2023/08/24 10:28:23;;;;;;;0.75;0.70;;;24.60;99.90;;;;;;4989819;28;19929;-70
2023/08/24 10:30:49;;;;;;;0.68;0.68;;;24.50;99.90;;;;;;5000315;28;20443;-71
2023/08/24 10:33:16;;;;;;;0.88;0.88;;;24.50;99.90;;;;;;4987021;28;20107;-71
2023/08/24 10:35:43;;;;;;;0.70;0.70;;;24.50;99.90;;;;;;4988610;28;20038;-71
2023/08/24 10:38:22;;;;;;;;;;;24.50;99.90;;;;;;4987587;28;20053;-70
2023/08/24 10:40:48;;;;;;;0.50;0.50;;;24.50;99.90;;;;;;4996613;28;19973;-70
2023/08/24 10:43:13;;;;;;;0.57;0.57;;;24.40;99.90;;;;;;5002983;28;20085;-71
2023/08/24 10:46:12;;;;;;;0.90;0.90;;;24.50;99.90;;;;;;4998543;28;20414;-71
2023/08/24 10:48:41;;;;;;;0.40;0.40;;;24.50;99.90;;;;;;4980311;28;20050;-71
2023/08/24 10:51:27;;;;;;;0.65;0.65;;;24.50;99.90;;;;;;4985059;28;20506;-71
2023/08/24 10:54:04;;;;;;;0.60;0.60;;;24.50;99.90;;;;;;4987043;28;20457;-71
2023/08/24 10:56:38;;;;;;;;;;;24.50;99.90;;;;;;4988572;28;20474;-70
2023/08/24 10:59:11;;;;;;;0.60;0.60;;;24.50;99.90;;;;;;5004875;28;20432;-71
2023/08/24 11:01:41;;;;;;;0.65;0.65;;;24.50;99.90;;;;;;4981404;28;20054;-73
2023/08/24 11:04:10;;;;;;;0.90;0.90;;;24.50;99.90;;;;;;4984255;28;20045;-69
2023/08/24 11:06:52;;;;;;;0.55;0.55;;;24.50;99.90;;;;;;4989756;28;20057;-69
2023/08/24 11:09:17;;;;;;;1.85;1.15;;;24.50;99.90;;;;;;4984856;28;20046;-70
2023/08/24 11:11:56;;;;;;;0.60;0.60;;;24.50;99.90;;;;;;4994282;28;20119;-69
2023/08/24 11:14:25;;;;;;;0.60;0.60;;;24.50;99.90;;;;;;4983398;28;20046;-69
2023/08/24 11:16:51;;;;;;;0.50;0.50;;;24.60;99.90;;;;;;4985904;28;20112;-69
2023/08/24 11:19:16;;;;;;;1.27;1.27;;;24.70;99.90;;;;;;4998077;28;20038;-69
2023/08/24 11:21:44;;;;;;;0.70;0.70;;;24.70;99.90;;;;;;4995329;28;20046;-70
2023/08/24 11:24:11;;;;;;;0.40;0.40;;;24.70;99.90;;;;;;4986363;28;20095;-70
2023/08/24 11:26:41;;;;;;;;;;;24.80;99.90;;;;;;4973103;28;20161;-70
2023/08/24 11:29:07;;;;;;;0.40;0.40;;;24.90;99.90;;;;;;4977178;28;19976;-70
2023/08/24 11:31:34;;;;;;;1.02;0.57;;;25.10;99.90;;;;;;4982073;28;20472;-70
2023/08/24 11:34:00;;;;;;;0.40;0.40;;;25.20;99.90;;;;;;4986773;28;20061;-70
2023/08/24 11:36:25;;;;;;;0.75;0.75;;;25.40;99.90;;;;;;4986847;28;20407;-70
2023/08/24 11:38:55;;;;;;;1.17;1.15;;;25.60;99.90;;;;;;4983324;28;20077;-70
2023/08/24 11:41:21;;;;;;;0.47;0.47;;;25.70;99.90;;;;;;4982745;28;20492;-71
2023/08/24 11:43:50;;;;;;;1.00;0.85;;;25.70;99.90;;;;;;4986095;28;20057;-71
2023/08/24 11:46:19;;;;;;;0.40;0.40;;;25.70;99.90;;;;;;4989520;28;20525;-71
2023/08/24 11:48:45;;;;;;;0.57;0.40;;;25.70;99.90;;;;;;4997940;28;20783;-71
2023/08/24 11:51:12;;;;;;;0.43;0.43;;;25.70;99.90;;;;;;4993435;28;20045;-70
2023/08/24 11:53:42;;;;;;;1.05;1.05;;;25.80;99.90;;;;;;5003371;28;20506;-71
2023/08/24 11:56:10;;;;;;;0.30;0.30;;;25.90;99.90;;;;;;4990020;28;20080;-70
2023/08/24 11:58:40;;;;;;;0.90;0.90;;;26.00;99.90;;;;;;4986211;28;20069;-71
2023/08/24 12:01:07;;;;;;;0.60;0.60;;;26.00;99.90;;;;;;4991745;28;20054;-70
2023/08/24 12:03:34;;;;;;;0.50;0.50;;;26.00;99.90;;;;;;4985543;28;20045;-70
2023/08/24 12:06:11;;;;;;;0.40;0.40;;;26.10;99.90;;;;;;4986890;28;20052;-71
2023/08/24 12:08:45;;;;;;;0.45;0.45;;;26.10;99.90;;;;;;4985311;28;20050;-70
2023/08/24 12:11:19;;;;;;;0.52;0.52;;;26.20;99.90;;;;;;4989152;28;20065;-70
2023/08/24 12:13:50;;;;;;;0.57;0.57;;;26.20;99.90;;;;;;5006416;28;20446;-71
2023/08/24 12:16:17;;;;;;;0.70;0.70;;;26.30;99.90;;;;;;5006692;28;20069;-70
2023/08/24 12:18:55;;;;;;;0.40;0.40;;;26.30;99.90;;;;;;5008338;28;20107;-70
2023/08/24 12:21:22;;;;;;;0.28;0.28;;;26.30;99.90;;;;;;5003681;28;20054;-70
2023/08/24 12:23:56;;;;;;;0.47;0.47;;;26.30;99.90;;;;;;5001396;28;20100;-70
2023/08/24 12:26:22;;;;;;;0.90;0.90;;;26.30;99.90;;;;;;5004077;28;20049;-70
2023/08/24 12:28:52;;;;;;;0.75;0.75;;;26.20;99.90;;;;;;5005169;28;20061;-70
2023/08/24 12:31:18;;;;;;;0.50;0.50;;;26.20;99.90;;;;;;4989556;28;20129;-70
2023/08/24 12:33:45;;;;;;;0.30;0.30;;;26.20;99.90;;;;;;4992565;28;20431;-70
2023/08/24 12:36:11;;;;;;;0.57;0.57;;;26.20;99.90;;;;;;4987606;28;20137;-70
2023/08/24 12:38:37;;;;;;;0.88;0.50;;;26.20;99.90;;;;;;5007976;28;20868;-70
2023/08/24 12:41:02;;;;;;;0.43;0.43;;;26.10;99.90;;;;;;4999056;28;20053;-70
2023/08/24 12:43:28;;;;;;;0.40;0.40;;;26.20;99.90;;;;;;5007115;28;20046;-70
2023/08/24 12:45:54;;;;;;;0.40;0.40;;;26.10;99.90;;;;;;4983988;28;20058;-70
2023/08/24 12:48:19;;;;;;;0.40;0.40;;;26.10;99.90;;;;;;4982494;28;20046;-70
2023/08/24 12:50:45;;;;;;;0.50;0.50;;;26.20;99.90;;;;;;4987572;28;20165;-70